Terminal Aerodrome Forecast
Issued by NWS Greer, SC

Home | Current Version | Previous Version | Text Only | Print | Product List | Glossary On
Versions: 1 2 3 4 5 6 7 8 9 10 11 12 13 14 15 16 17 18 19 20 21 22 23 24 25 26 27 28 29 30 31 32
153
FTUS42 KGSP 260540
TAFAVL
TAF
KAVL 260540Z 2606/2706 34003KT P6SM SCT060
      TEMPO 2609/2612 00000KT 5SM BR SCT090
     FM261300 34003KT P6SM BKN050 PROB30 2618/2621 4SM -TSRA
      BKN045CB
     FM270400 00000KT P6SM SCT070=

USA.gov is the U.S. government's official web portal to all federal, state and local government web resources and services.